Latest Weather Observations for Gelantipy

IDV60801

Issued at 1:02 pm EDT Wednesday 18 October 2017 (issued every 30 minutes, with the page automatically refreshed every 10 minutes)

About weather observations | Map of weather stations | Latest weather observations for VIC | Other Formats
Station Details ID: 084142 Name: GELANTIPY Lat: -37.22 Lon: 148.26 Height: 755.0 m
Data from the previous 72 hours. | See also: Recent months at Gelantipy
Date/Time
EDT
Temp
°C
App
Temp
°C
Dew
Point
°C
Rel
Hum
%
Delta-T
°C
Wind Press
QNH
hPa
Press
MSL
hPa
Rain since
9am
mm
Dir  Spd
km/h
Gust
km/h
Spd
kts
Gust
kts
18/01:00pm 25.3 22.0 4.4 26 10.8 NNE 11 19 6 10 1024.4 1023.8 0.0
18/12:30pm 24.4 20.7 4.7 28 10.2 NNE 13 17 7 9 1024.9 1024.3 0.0
18/12:00pm 24.2 20.2 2.9 25 10.6 NE 13 19 7 10 1025.2 1024.6 0.0
18/11:30am 23.0 19.3 6.3 34 8.8 NE 15 20 8 11 1025.7 1025.1 0.0
18/11:00am 21.3 18.0 6.4 38 7.8 NE 13 19 7 10 1025.9 1025.3 0.0
18/10:30am 20.0 16.7 8.0 46 6.4 NNE 15 20 8 11 1026.0 1025.4 0.0
18/10:00am 18.8 15.5 8.2 50 5.6 NNE 15 19 8 10 1026.0 1025.4 0.0
18/09:30am 18.2 15.2 7.9 51 5.5 NE 13 17 7 9 1026.1 1025.5 0.0
18/09:00am 16.5 13.0 7.4 55 4.7 NE 15 20 8 11 1025.9 1025.3 0.0
18/08:30am 15.3 10.9 7.6 60 4.0 NNE 20 26 11 14 1025.8 1025.2 0.0
18/08:00am 14.4 10.3 7.7 64 3.4 NNE 19 24 10 13 1025.8 1025.2 0.0
18/07:30am 13.1 8.9 7.3 68 2.9 NNE 19 22 10 12 1025.3 1024.7 0.0
18/07:00am 11.9 7.6 7.0 72 2.4 NNE 19 24 10 13 1025.0 1024.4 0.0
18/06:30am 9.6 5.9 6.3 80 1.6 NNE 15 20 8 11 1024.8 1024.2 0.0
18/06:00am 10.2 5.6 6.5 78 1.8 NNE 20 24 11 13 1024.7 1024.1 0.0
18/05:30am 12.0 7.5 7.1 72 2.5 NNE 20 24 11 13 1024.7 1024.1 0.0
18/05:00am 11.9 7.5 7.4 74 2.3 N 20 26 11 14 1024.6 1024.0 0.0
18/04:30am 12.8 8.1 7.7 71 2.6 N 22 26 12 14 1024.5 1023.9 0.0
18/04:00am 13.1 7.7 8.0 71 2.6 N 26 30 14 16 1024.6 1024.0 0.0
18/03:30am 12.6 8.9 7.9 73 2.4 NNE 17 20 9 11 1024.6 1024.0 0.0
18/03:00am 14.1 9.9 8.3 68 3.0 NNE 20 24 11 13 1024.7 1024.1 0.0
18/02:30am 12.5 8.7 7.6 72 2.5 NNE 17 22 9 12 1024.9 1024.3 0.0
18/02:00am 13.8 9.8 8.2 69 2.9 NNE 19 24 10 13 1024.9 1024.3 0.0
18/01:30am 14.1 10.4 8.1 67 3.1 NNE 17 20 9 11 1025.1 1024.5 0.0
18/01:00am 15.2 11.0 8.4 64 3.6 N 20 26 11 14 1025.1 1024.5 0.0
18/12:30am 15.7 11.6 8.7 63 3.7 N 20 24 11 13 1025.3 1024.7 0.0
18/12:00am 15.8 11.8 9.2 65 3.5 NNE 20 26 11 14 1025.3 1024.7 0.0
 
Date/Time
EDT
Temp
°C
App
Temp
°C
Dew
Point
°C
Rel
Hum
%
Delta-T
°C
Wind Press
QNH
hPa
Press
MSL
hPa
Rain since
9am
mm
Dir  Spd
km/h
Gust
km/h
Spd
kts
Gust
kts
17/11:30pm 15.8 11.8 9.0 64 3.6 N 20 26 11 14 1025.3 1024.7 0.0
17/11:00pm 16.5 12.5 9.2 62 3.9 N 20 24 11 13 1025.2 1024.6 0.0
17/10:30pm 16.5 12.4 8.7 60 4.2 N 20 22 11 12 1025.1 1024.5 0.0
17/10:00pm 15.2 13.3 9.1 67 3.2 N 9 11 5 6 1025.3 1024.7 0.0
17/09:30pm 14.5 12.8 8.5 67 3.1 NNE 7 9 4 5 1025.3 1024.7 0.0
17/09:00pm 15.6 14.0 8.6 63 3.7 NNE 7 7 4 4 1025.6 1025.0 0.0
17/08:30pm 16.0 14.4 8.2 60 4.1 WNW 6 7 3 4 1025.3 1024.7 0.0
17/08:00pm 18.7 17.1 8.7 52 5.4 WSW 7 11 4 6 1025.0 1024.4 0.0
17/07:30pm 19.6 17.7 8.9 50 5.8 WSW 9 13 5 7 1024.8 1024.2 0.0
17/07:00pm 20.6 18.7 9.2 48 6.3 SSW 9 13 5 7 1024.6 1024.0 0.0
17/06:30pm 22.3 20.4 9.1 43 7.3 S 9 17 5 9 1024.3 1023.6 0.0
17/06:00pm 23.0 20.7 9.0 41 7.7 S 11 19 6 10 1023.9 1023.3 0.0
17/05:30pm 23.3 20.3 9.3 41 7.8 S 15 24 8 13 1023.8 1023.2 0.0
17/05:00pm 24.2 21.1 9.0 38 8.5 SSE 15 24 8 13 1023.4 1022.8 0.0
17/04:30pm 24.6 20.8 9.0 37 8.7 SSE 19 28 10 15 1023.2 1022.6 0.0
17/04:00pm 26.6 22.7 1.1 19 12.5 NE 11 17 6 9 1023.1 1022.4 0.0
17/03:30pm 26.3 22.2 -3.3 14 13.5 ENE 9 17 5 9 1023.4 1022.8 0.0
17/03:00pm 26.6 21.4 -3.1 14 13.5 NE 15 19 8 10 1023.8 1023.2 0.0
17/02:30pm 26.2 21.4 -2.4 15 13.2 NNE 13 22 7 12 1024.3 1023.6 0.0
17/02:00pm 25.5 21.1 -2.1 16 12.7 ENE 11 17 6 9 1024.4 1023.8 0.0
17/01:30pm 24.7 20.4 0.9 21 11.5 E 13 19 7 10 1024.8 1024.2 0.0
17/01:00pm 24.6 20.5 2.1 23 11.1 ENE 13 19 7 10 1025.2 1024.6 0.0
17/12:30pm 24.3 20.6 6.1 31 9.7 NE 15 22 8 12 1025.8 1025.2 0.0
17/12:00pm 23.2 19.3 7.3 36 8.5 NE 17 24 9 13 1026.0 1025.4 0.0
17/11:30am 22.3 19.0 9.5 44 7.1 NNE 17 22 9 12 1026.3 1025.7 0.0
17/11:00am 21.4 19.2 10.9 51 6.0 NE 13 19 7 10 1026.6 1026.1 0.0
17/10:30am 19.8 16.8 10.8 56 5.1 NE 17 22 9 12 1026.6 1026.1 0.0
17/10:00am 18.9 16.1 11.5 62 4.2 NNE 17 22 9 12 1026.6 1026.1 0.0
17/09:30am 18.0 14.8 12.0 68 3.4 NNE 20 26 11 14 1026.6 1026.1 0.0
17/09:00am 16.7 13.4 11.6 72 2.9 NNE 20 26 11 14 1026.4 1025.8 0.0
17/08:30am 15.9 12.4 10.9 72 2.8 NNE 20 24 11 13 1026.3 1025.7 0.0
17/08:00am 15.2 11.9 10.8 75 2.4 NNE 19 24 10 13 1026.2 1025.6 0.0
17/07:30am 14.1 12.6 10.5 79 2.0 NNE 9 11 5 6 1025.9 1025.3 0.0
17/07:00am 12.1 10.9 9.7 85 1.3 E 6 9 3 5 1025.7 1025.1 0.0
17/06:30am 10.9 8.3 9.2 89 0.9 NNE 13 17 7 9 1025.3 1024.7 0.0
17/06:00am 11.3 9.4 9.2 87 1.1 NNE 9 13 5 7 1025.0 1024.4 0.0
17/05:30am 11.8 9.2 9.5 86 1.2 NNE 13 19 7 10 1024.8 1024.2 0.0
17/05:00am 12.2 9.0 9.8 85 1.3 NNE 17 20 9 11 1024.7 1024.1 0.0
17/04:30am 12.2 9.0 9.8 85 1.3 NNE 17 20 9 11 1024.8 1024.2 0.0
17/04:00am 12.2 8.5 9.6 84 1.4 NNE 19 22 10 12 1024.7 1024.1 0.0
17/03:30am 11.6 8.2 9.2 85 1.3 NE 17 22 9 12 1024.8 1024.2 0.0
17/03:00am 12.7 9.0 9.5 81 1.7 NNE 19 22 10 12 1024.9 1024.3 0.0
17/02:30am 11.8 8.8 9.4 85 1.3 NNE 15 20 8 11 1025.2 1024.6 0.0
17/02:00am 11.6 8.6 9.2 85 1.2 NNE 15 17 8 9 1025.8 1025.2 0.0
17/01:30am 12.7 9.3 9.2 79 1.8 NNE 17 20 9 11 1026.0 1025.4 0.0
17/01:00am 13.3 9.9 9.0 75 2.2 N 17 19 9 10 1026.2 1025.6 0.0
17/12:30am 14.2 10.9 9.4 73 2.6 N 17 19 9 10 1026.3 1025.7 0.0
17/12:00am 13.0 10.3 9.1 77 2.0 NNE 13 17 7 9 1026.4 1025.8 0.0
 
Date/Time
EDT
Temp
°C
App
Temp
°C
Dew
Point
°C
Rel
Hum
%
Delta-T
°C
Wind Press
QNH
hPa
Press
MSL
hPa
Rain since
9am
mm
Dir  Spd
km/h
Gust
km/h
Spd
kts
Gust
kts
16/11:30pm 12.5 11.1 8.8 78 1.9 NNE 6 9 3 5 1026.4 1025.8 0.0
16/11:00pm 12.3 10.2 8.2 76 2.1 NNE 9 11 5 6 1026.3 1025.7 0.0
16/10:30pm 12.2 10.0 7.9 75 2.2 N 9 11 5 6 1026.3 1025.7 0.0
16/10:00pm 12.1 11.5 7.2 72 2.4 CALM 0 0 0 0 1026.3 1025.7 0.0
16/09:30pm 14.0 12.2 7.3 64 3.4 NE 6 7 3 4 1026.2 1025.6 0.0
16/09:00pm 13.0 12.3 7.0 67 3.0 CALM 0 7 0 4 1026.1 1025.5 0.0
16/08:30pm 15.6 13.8 7.1 57 4.4 WNW 6 7 3 4 1025.8 1025.2 0.0
16/08:00pm 16.2 14.3 7.4 56 4.5 WSW 7 7 4 4 1025.6 1025.0 0.0
16/07:30pm 16.6 14.8 7.8 56 4.6 SW 7 11 4 6 1025.2 1024.6 0.0
16/07:00pm 18.8 16.5 7.6 48 5.9 S 9 13 5 7 1024.9 1024.3 0.0
16/06:30pm 19.8 17.4 8.5 48 6.1 S 11 17 6 9 1024.8 1024.2 0.0
16/06:00pm 20.7 17.1 8.4 45 6.7 SSE 17 24 9 13 1024.6 1024.0 0.0
16/05:30pm 21.6 19.0 9.2 45 6.9 SSE 13 22 7 12 1024.4 1023.8 0.0
16/05:00pm 22.1 18.6 8.9 43 7.3 SE 17 28 9 15 1024.1 1023.4 0.0
16/04:30pm 23.0 19.4 6.7 35 8.7 SSE 15 20 8 11 1024.1 1023.4 0.0
16/04:00pm 22.4 20.0 7.0 37 8.2 ESE 9 13 5 7 1024.3 1023.6 0.0
16/03:30pm 23.6 20.7 4.5 29 9.8 S 9 17 5 9 1024.5 1023.9 0.0
16/03:00pm 22.9 19.7 5.3 32 9.1 S 11 17 6 9 1024.8 1024.2 0.0
16/02:30pm 23.0 20.6 7.1 36 8.5 SSE 9 19 5 10 1025.0 1024.4 0.0
16/02:00pm 22.5 19.3 5.0 32 9.0 S 11 20 6 11 1025.4 1024.8 0.0
16/01:30pm 22.2 19.8 5.2 33 8.8 SSE 7 17 4 9 1025.8 1025.2 0.0
16/01:00pm 21.9 19.4 6.6 37 8.1 SSE 9 17 5 9 1026.1 1025.5 0.0
16/12:30pm 21.5 19.2 7.3 40 7.6 S 9 15 5 8 1026.4 1025.8 0.0
16/12:00pm 21.5 19.5 10.3 49 6.3 NE 11 17 6 9 1026.6 1026.1 0.0
16/11:30am 20.5 18.1 8.8 47 6.4 NE 11 17 6 9 1027.1 1026.5 0.0
16/11:00am 19.6 18.0 11.6 60 4.6 NE 11 15 6 8 1027.2 1026.6 0.0
16/10:30am 17.7 15.1 10.6 63 3.9 NNE 15 19 8 10 1027.3 1026.7 0.0
16/10:00am 16.8 13.5 9.5 62 3.9 NNE 17 20 9 11 1027.2 1026.6 0.0
16/09:30am 16.2 12.8 9.2 63 3.8 NE 17 22 9 12 1027.1 1026.5 0.0
16/09:00am 15.1 11.5 9.7 70 2.9 NNE 19 24 10 13 1026.8 1026.3 0.2
16/08:30am 14.2 10.7 8.8 70 2.8 NNE 17 22 9 12 1026.7 1026.2 0.2
16/08:00am 13.0 9.5 8.7 75 2.2 NNE 17 22 9 12 1026.7 1026.2 0.2
16/07:30am 11.8 8.1 7.9 77 2.0 NNE 17 22 9 12 1026.5 1025.9 0.2
16/07:00am 10.4 7.7 7.3 81 1.5 NE 11 15 6 8 1026.2 1025.6 0.2
16/06:30am 9.6 5.6 6.7 82 1.4 NNE 17 20 9 11 1025.9 1025.3 0.2
16/06:00am 8.3 5.7 6.3 87 1.0 NNE 9 15 5 8 1025.7 1025.1 0.2
16/05:30am 8.4 5.2 6.7 89 0.8 NNE 13 15 7 8 1025.6 1025.0 0.2
16/05:00am 8.6 6.4 6.4 86 1.1 NNE 7 11 4 6 1025.3 1024.7 0.2
16/04:30am 8.9 5.3 6.7 86 1.1 NNE 15 17 8 9 1025.2 1024.6 0.2
16/04:00am 9.4 5.4 6.7 83 1.3 N 17 19 9 10 1025.2 1024.6 0.2
16/03:30am 9.2 6.0 6.8 85 1.2 NNE 13 15 7 8 1025.4 1024.8 0.2
16/03:00am 9.6 6.1 7.0 84 1.3 NNE 15 17 8 9 1025.4 1024.8 0.2
16/02:30am 9.5 5.6 7.1 85 1.2 NNE 17 19 9 10 1025.4 1024.8 0.2
16/02:00am 9.6 5.7 7.2 85 1.2 NNE 17 20 9 11 1025.7 1025.1 0.2
16/01:30am 8.1 4.8 6.4 89 0.8 NNE 13 15 7 8 1025.9 1025.3 0.2
16/01:00am 9.4 6.6 6.8 84 1.3 NNE 11 13 6 7 1026.2 1025.6 0.2
16/12:30am 9.3 7.1 6.2 81 1.5 N 7 9 4 5 1026.4 1025.8 0.2
16/12:00am 9.6 7.0 6.0 78 1.7 NNE 9 9 5 5 1026.3 1025.7 0.2
 
Date/Time
EDT
Temp
°C
App
Temp
°C
Dew
Point
°C
Rel
Hum
%
Delta-T
°C
Wind Press
QNH
hPa
Press
MSL
hPa
Rain since
9am
mm
Dir  Spd
km/h
Gust
km/h
Spd
kts
Gust
kts
15/11:30pm 9.4 7.1 5.9 79 1.7 NNE 7 9 4 5 1026.3 1025.7 0.2
15/11:00pm 9.3 8.4 5.9 79 1.6 CALM 0 0 0 0 1026.3 1025.7 0.2
15/10:30pm 9.7 7.7 6.4 80 1.6 NNE 6 7 3 4 1026.4 1025.8 0.2
15/10:00pm 8.2 6.2 6.2 87 1.0 NE 6 7 3 4 1026.3 1025.7 0.2
15/09:30pm 10.4 9.8 7.6 83 1.4 CALM 0 0 0 0 1026.4 1025.8 0.2
15/09:00pm 11.1 10.6 8.0 81 1.6 CALM 0 0 0 0 1026.4 1025.8 0.2
15/08:30pm 11.1 9.4 7.6 79 1.8 WSW 6 7 3 4 1026.2 1025.6 0.2
15/08:00pm 11.6 9.7 7.7 77 2.0 SW 7 13 4 7 1026.0 1025.4 0.0
15/07:30pm 12.6 10.8 7.9 73 2.4 SSW 7 9 4 5 1025.6 1025.0 0.0
15/07:00pm 14.9 13.3 8.8 67 3.2 SSW 7 13 4 7 1025.2 1024.6 0.0
15/06:30pm 16.2 13.5 7.4 56 4.6 SSW 11 17 6 9 1024.8 1024.2 0.0
15/06:00pm 16.9 14.3 7.8 55 4.8 S 11 19 6 10 1024.6 1024.0 0.0
15/05:30pm 17.7 14.7 9.3 58 4.6 S 15 22 8 12 1024.5 1023.9 0.0
15/05:00pm 18.7 15.7 9.2 54 5.2 S 15 20 8 11 1024.2 1023.5 0.0
15/04:30pm 19.4 16.6 8.7 50 5.8 SSE 13 22 7 12 1023.9 1023.3 0.0
15/04:00pm 19.4 16.3 8.7 50 5.8 S 15 22 8 12 1023.8 1023.2 0.0
15/03:30pm 19.4 16.5 8.1 48 6.1 S 13 20 7 11 1023.9 1023.3 0.0
15/03:00pm 19.6 16.7 8.3 48 6.1 S 13 19 7 10 1024.1 1023.4 0.0
15/02:30pm 19.5 16.5 7.9 47 6.2 S 13 22 7 12 1024.4 1023.8 0.0
15/02:00pm 18.8 15.8 6.0 43 6.5 S 11 19 6 10 1024.4 1023.8 0.0
15/01:30pm 18.7 15.7 7.5 48 5.9 SSE 13 22 7 12 1024.5 1023.9 0.0

Other Formats:

Comma delimited format used in spreadsheet applications
http://www.bom.gov.au/fwo/IDV60801/IDV60801.94913.axf

JavaScript Object Notation format (JSON) in row-major order
http://www.bom.gov.au/fwo/IDV60801/IDV60801.94913.json